sensor_id;sensor_type;location;lat;lon;timestamp;temperature;humidity
51637;DHT22;37713;53.254;6.460;2023-07-20T00:01:58;15.80;99.90
51637;DHT22;37713;53.254;6.460;2023-07-20T00:04:24;15.80;99.90
51637;DHT22;37713;53.254;6.460;2023-07-20T00:06:50;15.70;99.90
51637;DHT22;37713;53.254;6.460;2023-07-20T00:09:15;15.70;99.90
51637;DHT22;37713;53.254;6.460;2023-07-20T00:11:48;15.70;99.90
51637;DHT22;37713;53.254;6.460;2023-07-20T00:14:16;15.70;99.90
51637;DHT22;37713;53.254;6.460;2023-07-20T00:16:42;15.60;99.90
51637;DHT22;37713;53.254;6.460;2023-07-20T00:19:08;15.60;99.90
51637;DHT22;37713;53.254;6.460;2023-07-20T00:21:34;15.60;99.90
51637;DHT22;37713;53.254;6.460;2023-07-20T00:24:00;15.60;99.90
51637;DHT22;37713;53.254;6.460;2023-07-20T00:26:26;15.60;99.90
51637;DHT22;37713;53.254;6.460;2023-07-20T00:28:51;15.60;99.90
51637;DHT22;37713;53.254;6.460;2023-07-20T00:31:17;15.60;99.90
51637;DHT22;37713;53.254;6.460;2023-07-20T00:33:43;15.50;99.90
51637;DHT22;37713;53.254;6.460;2023-07-20T00:36:09;15.50;99.90
51637;DHT22;37713;53.254;6.460;2023-07-20T00:38:34;15.40;99.90
51637;DHT22;37713;53.254;6.460;2023-07-20T00:41:00;15.40;99.90
51637;DHT22;37713;53.254;6.460;2023-07-20T00:43:26;15.30;99.90
51637;DHT22;37713;53.254;6.460;2023-07-20T00:45:52;15.20;99.90
51637;DHT22;37713;53.254;6.460;2023-07-20T00:48:18;15.20;99.90
51637;DHT22;37713;53.254;6.460;2023-07-20T00:50:44;15.10;99.90
51637;DHT22;37713;53.254;6.460;2023-07-20T00:53:11;15.00;99.90
51637;DHT22;37713;53.254;6.460;2023-07-20T00:55:37;15.00;99.90
51637;DHT22;37713;53.254;6.460;2023-07-20T00:58:03;14.90;99.90
51637;DHT22;37713;53.254;6.460;2023-07-20T01:00:29;14.90;99.90
51637;DHT22;37713;53.254;6.460;2023-07-20T01:02:55;14.80;99.90
51637;DHT22;37713;53.254;6.460;2023-07-20T01:05:21;14.80;99.90
51637;DHT22;37713;53.254;6.460;2023-07-20T01:08:07;14.80;99.90
51637;DHT22;37713;53.254;6.460;2023-07-20T01:10:43;14.80;99.90
51637;DHT22;37713;53.254;6.460;2023-07-20T01:13:10;14.60;99.90
51637;DHT22;37713;53.254;6.460;2023-07-20T01:15:37;14.70;99.90
51637;DHT22;37713;53.254;6.460;2023-07-20T01:18:03;14.60;99.90
51637;DHT22;37713;53.254;6.460;2023-07-20T01:20:32;14.50;99.90
51637;DHT22;37713;53.254;6.460;2023-07-20T01:26:08;14.40;99.90
51637;DHT22;37713;53.254;6.460;2023-07-20T01:33:49;14.30;99.90
51637;DHT22;37713;53.254;6.460;2023-07-20T01:36:18;14.20;99.90
51637;DHT22;37713;53.254;6.460;2023-07-20T01:38:45;14.20;99.90
51637;DHT22;37713;53.254;6.460;2023-07-20T01:41:11;14.10;99.90
51637;DHT22;37713;53.254;6.460;2023-07-20T01:43:37;14.00;99.90
51637;DHT22;37713;53.254;6.460;2023-07-20T01:46:03;14.00;99.90
51637;DHT22;37713;53.254;6.460;2023-07-20T01:48:29;13.90;99.90
51637;DHT22;37713;53.254;6.460;2023-07-20T01:50:55;13.90;99.90
51637;DHT22;37713;53.254;6.460;2023-07-20T01:53:21;13.80;99.90
51637;DHT22;37713;53.254;6.460;2023-07-20T01:55:46;13.70;99.90
51637;DHT22;37713;53.254;6.460;2023-07-20T01:58:12;13.70;99.90
51637;DHT22;37713;53.254;6.460;2023-07-20T02:00:38;13.70;99.90
51637;DHT22;37713;53.254;6.460;2023-07-20T02:03:04;13.60;99.90
51637;DHT22;37713;53.254;6.460;2023-07-20T02:05:30;13.60;99.90
51637;DHT22;37713;53.254;6.460;2023-07-20T02:07:56;13.50;99.90
51637;DHT22;37713;53.254;6.460;2023-07-20T02:10:22;13.50;99.90
51637;DHT22;37713;53.254;6.460;2023-07-20T02:12:48;13.50;99.90
51637;DHT22;37713;53.254;6.460;2023-07-20T02:15:14;13.40;99.90
51637;DHT22;37713;53.254;6.460;2023-07-20T02:17:42;13.40;99.90
51637;DHT22;37713;53.254;6.460;2023-07-20T02:20:09;13.30;99.90
51637;DHT22;37713;53.254;6.460;2023-07-20T02:22:38;13.30;99.90
51637;DHT22;37713;53.254;6.460;2023-07-20T02:25:05;13.30;99.90
51637;DHT22;37713;53.254;6.460;2023-07-20T02:27:33;13.30;99.90
51637;DHT22;37713;53.254;6.460;2023-07-20T02:30:00;13.20;99.90
51637;DHT22;37713;53.254;6.460;2023-07-20T02:32:25;13.20;99.90
51637;DHT22;37713;53.254;6.460;2023-07-20T02:34:51;13.20;99.90
51637;DHT22;37713;53.254;6.460;2023-07-20T02:37:17;13.10;99.90
51637;DHT22;37713;53.254;6.460;2023-07-20T02:39:43;13.10;99.90
51637;DHT22;37713;53.254;6.460;2023-07-20T02:42:09;13.10;99.90
51637;DHT22;37713;53.254;6.460;2023-07-20T02:44:35;13.00;99.90
51637;DHT22;37713;53.254;6.460;2023-07-20T02:47:01;13.00;99.90
51637;DHT22;37713;53.254;6.460;2023-07-20T02:49:27;13.00;99.90
51637;DHT22;37713;53.254;6.460;2023-07-20T02:51:53;13.00;99.90
51637;DHT22;37713;53.254;6.460;2023-07-20T02:54:19;12.90;99.90
51637;DHT22;37713;53.254;6.460;2023-07-20T02:56:44;12.90;99.90
51637;DHT22;37713;53.254;6.460;2023-07-20T02:59:10;12.90;99.90
51637;DHT22;37713;53.254;6.460;2023-07-20T03:01:36;12.80;99.90
51637;DHT22;37713;53.254;6.460;2023-07-20T03:04:02;12.80;99.90
51637;DHT22;37713;53.254;6.460;2023-07-20T03:06:28;12.70;99.90
51637;DHT22;37713;53.254;6.460;2023-07-20T03:08:53;12.70;99.90
51637;DHT22;37713;53.254;6.460;2023-07-20T03:11:20;12.70;99.90
51637;DHT22;37713;53.254;6.460;2023-07-20T03:13:47;12.60;99.90
51637;DHT22;37713;53.254;6.460;2023-07-20T03:16:15;12.60;99.90
51637;DHT22;37713;53.254;6.460;2023-07-20T03:18:43;12.60;99.90
51637;DHT22;37713;53.254;6.460;2023-07-20T03:21:09;12.50;99.90
51637;DHT22;37713;53.254;6.460;2023-07-20T03:23:39;12.50;99.90
51637;DHT22;37713;53.254;6.460;2023-07-20T03:26:05;12.50;99.90
51637;DHT22;37713;53.254;6.460;2023-07-20T03:28:34;12.50;99.90
51637;DHT22;37713;53.254;6.460;2023-07-20T03:31:00;12.50;99.90
51637;DHT22;37713;53.254;6.460;2023-07-20T03:33:27;12.40;99.90
51637;DHT22;37713;53.254;6.460;2023-07-20T03:35:53;12.50;99.90
51637;DHT22;37713;53.254;6.460;2023-07-20T03:38:24;12.40;99.90
51637;DHT22;37713;53.254;6.460;2023-07-20T03:40:58;12.40;99.90
51637;DHT22;37713;53.254;6.460;2023-07-20T03:43:26;12.40;99.90
51637;DHT22;37713;53.254;6.460;2023-07-20T03:45:53;12.30;99.90
51637;DHT22;37713;53.254;6.460;2023-07-20T03:48:21;12.30;99.90
51637;DHT22;37713;53.254;6.460;2023-07-20T03:50:49;12.30;99.90
51637;DHT22;37713;53.254;6.460;2023-07-20T03:53:15;12.30;99.90
51637;DHT22;37713;53.254;6.460;2023-07-20T03:55:44;12.30;99.90
51637;DHT22;37713;53.254;6.460;2023-07-20T03:58:10;12.30;99.90
51637;DHT22;37713;53.254;6.460;2023-07-20T04:03:02;12.30;99.90
51637;DHT22;37713;53.254;6.460;2023-07-20T04:05:28;12.30;99.90
51637;DHT22;37713;53.254;6.460;2023-07-20T04:07:53;12.40;99.90
51637;DHT22;37713;53.254;6.460;2023-07-20T04:10:19;12.40;99.90
51637;DHT22;37713;53.254;6.460;2023-07-20T04:12:45;12.40;99.90
51637;DHT22;37713;53.254;6.460;2023-07-20T04:15:13;12.50;99.90
51637;DHT22;37713;53.254;6.460;2023-07-20T04:17:42;12.50;99.90
51637;DHT22;37713;53.254;6.460;2023-07-20T04:20:08;12.50;99.90
51637;DHT22;37713;53.254;6.460;2023-07-20T04:22:34;12.60;99.90
51637;DHT22;37713;53.254;6.460;2023-07-20T04:25:00;12.60;99.90
51637;DHT22;37713;53.254;6.460;2023-07-20T04:27:26;12.60;99.90
51637;DHT22;37713;53.254;6.460;2023-07-20T04:29:52;12.60;99.90
51637;DHT22;37713;53.254;6.460;2023-07-20T04:32:18;12.70;99.90
51637;DHT22;37713;53.254;6.460;2023-07-20T04:34:44;12.70;99.90
51637;DHT22;37713;53.254;6.460;2023-07-20T04:37:09;12.80;99.90
51637;DHT22;37713;53.254;6.460;2023-07-20T04:39:35;12.80;99.90
51637;DHT22;37713;53.254;6.460;2023-07-20T04:42:01;12.90;99.90
51637;DHT22;37713;53.254;6.460;2023-07-20T04:44:27;13.00;99.90
51637;DHT22;37713;53.254;6.460;2023-07-20T04:46:52;13.10;99.90
51637;DHT22;37713;53.254;6.460;2023-07-20T04:49:18;13.20;99.90
51637;DHT22;37713;53.254;6.460;2023-07-20T04:51:45;13.30;99.90
51637;DHT22;37713;53.254;6.460;2023-07-20T04:54:11;13.40;99.90
51637;DHT22;37713;53.254;6.460;2023-07-20T04:56:37;13.50;99.90
51637;DHT22;37713;53.254;6.460;2023-07-20T04:59:02;13.60;99.90
51637;DHT22;37713;53.254;6.460;2023-07-20T05:01:28;13.70;99.90
51637;DHT22;37713;53.254;6.460;2023-07-20T05:03:54;13.80;99.90
51637;DHT22;37713;53.254;6.460;2023-07-20T05:06:20;13.90;99.90
51637;DHT22;37713;53.254;6.460;2023-07-20T05:08:46;13.90;99.90
51637;DHT22;37713;53.254;6.460;2023-07-20T05:11:11;14.00;99.90
51637;DHT22;37713;53.254;6.460;2023-07-20T05:13:38;14.10;99.90
51637;DHT22;37713;53.254;6.460;2023-07-20T05:16:04;14.10;99.90
51637;DHT22;37713;53.254;6.460;2023-07-20T05:18:29;14.10;99.90
51637;DHT22;37713;53.254;6.460;2023-07-20T05:20:55;14.10;99.90
51637;DHT22;37713;53.254;6.460;2023-07-20T05:23:21;14.10;99.90
51637;DHT22;37713;53.254;6.460;2023-07-20T05:25:57;14.10;99.90
51637;DHT22;37713;53.254;6.460;2023-07-20T05:28:24;14.10;99.90
51637;DHT22;37713;53.254;6.460;2023-07-20T05:30:51;14.10;99.90
51637;DHT22;37713;53.254;6.460;2023-07-20T05:33:20;14.10;99.90
51637;DHT22;37713;53.254;6.460;2023-07-20T05:35:47;14.10;99.90
51637;DHT22;37713;53.254;6.460;2023-07-20T05:38:13;14.20;99.90
51637;DHT22;37713;53.254;6.460;2023-07-20T05:40:44;14.20;99.90
51637;DHT22;37713;53.254;6.460;2023-07-20T05:43:10;14.20;99.90
51637;DHT22;37713;53.254;6.460;2023-07-20T05:45:36;14.30;99.90
51637;DHT22;37713;53.254;6.460;2023-07-20T05:48:02;14.30;99.90
51637;DHT22;37713;53.254;6.460;2023-07-20T05:50:28;14.40;99.90
51637;DHT22;37713;53.254;6.460;2023-07-20T05:52:54;14.40;99.90
51637;DHT22;37713;53.254;6.460;2023-07-20T05:55:20;14.50;99.90
51637;DHT22;37713;53.254;6.460;2023-07-20T05:57:46;14.50;99.90
51637;DHT22;37713;53.254;6.460;2023-07-20T06:00:13;14.70;99.90
51637;DHT22;37713;53.254;6.460;2023-07-20T06:02:40;14.60;99.90
51637;DHT22;37713;53.254;6.460;2023-07-20T06:05:09;14.70;99.90
51637;DHT22;37713;53.254;6.460;2023-07-20T06:07:38;14.80;99.90
51637;DHT22;37713;53.254;6.460;2023-07-20T06:10:04;14.80;99.90
51637;DHT22;37713;53.254;6.460;2023-07-20T06:12:31;14.90;99.90
51637;DHT22;37713;53.254;6.460;2023-07-20T06:15:01;15.00;99.90
51637;DHT22;37713;53.254;6.460;2023-07-20T06:17:27;15.10;99.90
51637;DHT22;37713;53.254;6.460;2023-07-20T06:19:53;15.20;99.90
51637;DHT22;37713;53.254;6.460;2023-07-20T06:22:19;15.30;99.90
51637;DHT22;37713;53.254;6.460;2023-07-20T06:24:44;15.40;99.90
51637;DHT22;37713;53.254;6.460;2023-07-20T06:27:10;15.60;99.90
51637;DHT22;37713;53.254;6.460;2023-07-20T06:29:37;15.70;99.90
51637;DHT22;37713;53.254;6.460;2023-07-20T06:32:04;15.90;99.90
51637;DHT22;37713;53.254;6.460;2023-07-20T06:34:30;16.10;99.90
51637;DHT22;37713;53.254;6.460;2023-07-20T06:36:56;16.30;99.90
51637;DHT22;37713;53.254;6.460;2023-07-20T06:39:22;16.70;99.90
51637;DHT22;37713;53.254;6.460;2023-07-20T06:41:48;17.10;99.90
51637;DHT22;37713;53.254;6.460;2023-07-20T06:44:14;17.40;99.90
51637;DHT22;37713;53.254;6.460;2023-07-20T06:46:39;18.20;99.90
51637;DHT22;37713;53.254;6.460;2023-07-20T06:49:08;19.20;99.90
51637;DHT22;37713;53.254;6.460;2023-07-20T06:51:34;19.50;99.90
51637;DHT22;37713;53.254;6.460;2023-07-20T06:54:00;19.30;99.90
51637;DHT22;37713;53.254;6.460;2023-07-20T06:56:26;18.80;99.90
51637;DHT22;37713;53.254;6.460;2023-07-20T06:58:52;18.30;99.90
51637;DHT22;37713;53.254;6.460;2023-07-20T07:01:18;17.80;99.90
51637;DHT22;37713;53.254;6.460;2023-07-20T07:03:44;18.40;99.90
51637;DHT22;37713;53.254;6.460;2023-07-20T07:06:10;19.70;99.90
51637;DHT22;37713;53.254;6.460;2023-07-20T07:08:36;21.00;99.90
51637;DHT22;37713;53.254;6.460;2023-07-20T07:11:02;21.90;99.90
51637;DHT22;37713;53.254;6.460;2023-07-20T07:13:28;21.70;99.90
51637;DHT22;37713;53.254;6.460;2023-07-20T07:15:53;21.80;99.90
51637;DHT22;37713;53.254;6.460;2023-07-20T07:18:19;22.20;99.90
51637;DHT22;37713;53.254;6.460;2023-07-20T07:20:52;21.90;99.90
51637;DHT22;37713;53.254;6.460;2023-07-20T07:23:19;21.10;99.90
51637;DHT22;37713;53.254;6.460;2023-07-20T07:25:45;20.40;99.90
51637;DHT22;37713;53.254;6.460;2023-07-20T07:28:11;19.70;99.90
51637;DHT22;37713;53.254;6.460;2023-07-20T07:30:36;19.20;99.90
51637;DHT22;37713;53.254;6.460;2023-07-20T07:33:03;18.80;99.90
51637;DHT22;37713;53.254;6.460;2023-07-20T07:35:28;19.10;99.90
51637;DHT22;37713;53.254;6.460;2023-07-20T07:37:54;20.40;99.90
51637;DHT22;37713;53.254;6.460;2023-07-20T07:40:20;21.10;99.90
51637;DHT22;37713;53.254;6.460;2023-07-20T07:42:46;21.70;99.90
51637;DHT22;37713;53.254;6.460;2023-07-20T07:45:13;22.30;99.90
51637;DHT22;37713;53.254;6.460;2023-07-20T07:47:39;22.40;99.90
51637;DHT22;37713;53.254;6.460;2023-07-20T07:50:06;21.80;99.90
51637;DHT22;37713;53.254;6.460;2023-07-20T07:52:32;21.10;99.90
51637;DHT22;37713;53.254;6.460;2023-07-20T07:54:58;20.90;99.90
51637;DHT22;37713;53.254;6.460;2023-07-20T07:57:23;20.50;99.90
51637;DHT22;37713;53.254;6.460;2023-07-20T07:59:49;20.00;99.90
51637;DHT22;37713;53.254;6.460;2023-07-20T08:02:15;20.10;99.90
51637;DHT22;37713;53.254;6.460;2023-07-20T08:04:41;20.20;99.90
51637;DHT22;37713;53.254;6.460;2023-07-20T08:07:07;20.00;99.90
51637;DHT22;37713;53.254;6.460;2023-07-20T08:09:33;19.70;99.90
51637;DHT22;37713;53.254;6.460;2023-07-20T08:11:58;19.50;99.90
51637;DHT22;37713;53.254;6.460;2023-07-20T08:14:25;20.30;99.90
51637;DHT22;37713;53.254;6.460;2023-07-20T08:16:51;20.60;99.90
51637;DHT22;37713;53.254;6.460;2023-07-20T08:19:17;20.50;99.90
51637;DHT22;37713;53.254;6.460;2023-07-20T08:21:43;20.80;99.90
51637;DHT22;37713;53.254;6.460;2023-07-20T08:24:08;21.30;99.90
51637;DHT22;37713;53.254;6.460;2023-07-20T08:26:34;21.80;99.90
51637;DHT22;37713;53.254;6.460;2023-07-20T08:29:00;22.00;99.90
51637;DHT22;37713;53.254;6.460;2023-07-20T08:31:26;22.20;99.90
51637;DHT22;37713;53.254;6.460;2023-07-20T08:33:53;22.40;99.90
51637;DHT22;37713;53.254;6.460;2023-07-20T08:36:19;22.70;99.90
51637;DHT22;37713;53.254;6.460;2023-07-20T08:38:46;22.50;99.90
51637;DHT22;37713;53.254;6.460;2023-07-20T08:41:13;22.40;99.90
51637;DHT22;37713;53.254;6.460;2023-07-20T08:43:42;22.00;99.90
51637;DHT22;37713;53.254;6.460;2023-07-20T08:46:08;21.70;99.90
51637;DHT22;37713;53.254;6.460;2023-07-20T08:48:36;21.10;99.90
51637;DHT22;37713;53.254;6.460;2023-07-20T08:51:02;20.80;99.90
51637;DHT22;37713;53.254;6.460;2023-07-20T08:53:30;21.00;99.90
51637;DHT22;37713;53.254;6.460;2023-07-20T08:55:58;21.30;99.90
51637;DHT22;37713;53.254;6.460;2023-07-20T08:58:25;21.60;99.90
51637;DHT22;37713;53.254;6.460;2023-07-20T09:00:52;21.10;99.90
51637;DHT22;37713;53.254;6.460;2023-07-20T09:03:18;20.60;99.90
51637;DHT22;37713;53.254;6.460;2023-07-20T09:05:45;20.30;99.90
51637;DHT22;37713;53.254;6.460;2023-07-20T09:08:11;20.30;99.90
51637;DHT22;37713;53.254;6.460;2023-07-20T09:10:36;20.60;99.90
51637;DHT22;37713;53.254;6.460;2023-07-20T09:13:02;20.80;99.90
51637;DHT22;37713;53.254;6.460;2023-07-20T09:15:29;21.00;99.90
51637;DHT22;37713;53.254;6.460;2023-07-20T09:17:54;21.20;99.90
51637;DHT22;37713;53.254;6.460;2023-07-20T09:20:21;21.30;99.90
51637;DHT22;37713;53.254;6.460;2023-07-20T09:22:47;21.40;99.90
51637;DHT22;37713;53.254;6.460;2023-07-20T09:25:14;21.20;99.90
51637;DHT22;37713;53.254;6.460;2023-07-20T09:27:43;21.10;99.90
51637;DHT22;37713;53.254;6.460;2023-07-20T09:30:10;21.00;99.90
51637;DHT22;37713;53.254;6.460;2023-07-20T09:32:46;20.60;99.90
51637;DHT22;37713;53.254;6.460;2023-07-20T09:35:19;20.60;99.90
51637;DHT22;37713;53.254;6.460;2023-07-20T09:37:55;20.60;99.90
51637;DHT22;37713;53.254;6.460;2023-07-20T09:40:25;20.60;99.90
51637;DHT22;37713;53.254;6.460;2023-07-20T09:42:53;20.60;99.90
51637;DHT22;37713;53.254;6.460;2023-07-20T09:45:29;20.70;99.90
51637;DHT22;37713;53.254;6.460;2023-07-20T09:48:04;20.80;99.90
51637;DHT22;37713;53.254;6.460;2023-07-20T09:50:30;20.80;99.90
51637;DHT22;37713;53.254;6.460;2023-07-20T09:52:56;20.80;99.90
51637;DHT22;37713;53.254;6.460;2023-07-20T09:55:22;20.90;99.90
51637;DHT22;37713;53.254;6.460;2023-07-20T09:57:49;21.00;99.90
51637;DHT22;37713;53.254;6.460;2023-07-20T10:00:16;21.00;99.90
51637;DHT22;37713;53.254;6.460;2023-07-20T10:02:44;21.00;99.90
51637;DHT22;37713;53.254;6.460;2023-07-20T10:05:12;21.00;99.90
51637;DHT22;37713;53.254;6.460;2023-07-20T10:07:49;20.90;99.90
51637;DHT22;37713;53.254;6.460;2023-07-20T10:10:16;21.00;99.90
51637;DHT22;37713;53.254;6.460;2023-07-20T10:12:44;21.00;99.90
51637;DHT22;37713;53.254;6.460;2023-07-20T10:15:27;21.10;99.90
51637;DHT22;37713;53.254;6.460;2023-07-20T10:18:06;21.30;99.90
51637;DHT22;37713;53.254;6.460;2023-07-20T10:20:39;21.30;99.90
51637;DHT22;37713;53.254;6.460;2023-07-20T10:23:07;21.20;99.90
51637;DHT22;37713;53.254;6.460;2023-07-20T10:25:33;21.10;99.90
51637;DHT22;37713;53.254;6.460;2023-07-20T10:28:05;21.10;99.90
51637;DHT22;37713;53.254;6.460;2023-07-20T10:30:35;21.10;99.90
51637;DHT22;37713;53.254;6.460;2023-07-20T10:33:05;21.00;99.90
51637;DHT22;37713;53.254;6.460;2023-07-20T10:36:01;21.00;99.90
51637;DHT22;37713;53.254;6.460;2023-07-20T10:41:22;21.00;99.90
51637;DHT22;37713;53.254;6.460;2023-07-20T10:43:58;21.00;99.90
51637;DHT22;37713;53.254;6.460;2023-07-20T10:46:43;21.10;99.90
51637;DHT22;37713;53.254;6.460;2023-07-20T10:49:10;21.00;99.90
51637;DHT22;37713;53.254;6.460;2023-07-20T10:51:46;20.90;99.90
51637;DHT22;37713;53.254;6.460;2023-07-20T10:56:48;20.90;99.90
51637;DHT22;37713;53.254;6.460;2023-07-20T10:59:36;20.90;99.90
51637;DHT22;37713;53.254;6.460;2023-07-20T11:02:07;20.90;99.90
51637;DHT22;37713;53.254;6.460;2023-07-20T11:04:45;20.80;99.90
51637;DHT22;37713;53.254;6.460;2023-07-20T11:07:35;20.90;99.90
51637;DHT22;37713;53.254;6.460;2023-07-20T11:10:15;20.90;99.90
51637;DHT22;37713;53.254;6.460;2023-07-20T11:12:41;21.00;99.90
51637;DHT22;37713;53.254;6.460;2023-07-20T11:16:03;21.00;99.90
51637;DHT22;37713;53.254;6.460;2023-07-20T11:18:30;21.00;99.90
51637;DHT22;37713;53.254;6.460;2023-07-20T11:20:58;21.00;99.90
51637;DHT22;37713;53.254;6.460;2023-07-20T11:23:24;21.00;99.90
51637;DHT22;37713;53.254;6.460;2023-07-20T11:25:50;21.20;99.90
51637;DHT22;37713;53.254;6.460;2023-07-20T11:28:16;21.10;99.90
51637;DHT22;37713;53.254;6.460;2023-07-20T11:30:41;21.20;99.90
51637;DHT22;37713;53.254;6.460;2023-07-20T11:33:10;21.30;99.90
51637;DHT22;37713;53.254;6.460;2023-07-20T11:35:45;21.30;99.90
51637;DHT22;37713;53.254;6.460;2023-07-20T11:38:14;21.30;99.90
51637;DHT22;37713;53.254;6.460;2023-07-20T11:40:44;21.20;99.90
51637;DHT22;37713;53.254;6.460;2023-07-20T11:43:11;21.10;99.90
51637;DHT22;37713;53.254;6.460;2023-07-20T11:45:38;21.10;99.90
51637;DHT22;37713;53.254;6.460;2023-07-20T11:48:04;20.90;99.90
51637;DHT22;37713;53.254;6.460;2023-07-20T11:50:30;20.90;99.90
51637;DHT22;37713;53.254;6.460;2023-07-20T11:52:56;20.90;99.90
51637;DHT22;37713;53.254;6.460;2023-07-20T11:55:23;21.00;99.90
51637;DHT22;37713;53.254;6.460;2023-07-20T11:58:05;21.20;99.90
51637;DHT22;37713;53.254;6.460;2023-07-20T12:00:32;21.30;99.90
51637;DHT22;37713;53.254;6.460;2023-07-20T12:02:59;21.10;99.90
51637;DHT22;37713;53.254;6.460;2023-07-20T12:05:25;21.10;99.90
51637;DHT22;37713;53.254;6.460;2023-07-20T12:07:51;21.00;99.90
51637;DHT22;37713;53.254;6.460;2023-07-20T12:10:27;20.90;99.90
51637;DHT22;37713;53.254;6.460;2023-07-20T12:12:54;21.00;99.90
51637;DHT22;37713;53.254;6.460;2023-07-20T12:15:21;20.90;99.90
51637;DHT22;37713;53.254;6.460;2023-07-20T12:17:50;21.00;99.90
51637;DHT22;37713;53.254;6.460;2023-07-20T12:20:31;21.00;99.90
51637;DHT22;37713;53.254;6.460;2023-07-20T12:23:02;20.90;99.90
51637;DHT22;37713;53.254;6.460;2023-07-20T12:25:42;20.70;99.90
51637;DHT22;37713;53.254;6.460;2023-07-20T12:28:15;20.70;99.90
51637;DHT22;37713;53.254;6.460;2023-07-20T12:30:42;20.50;99.90
51637;DHT22;37713;53.254;6.460;2023-07-20T12:33:10;20.30;99.90
51637;DHT22;37713;53.254;6.460;2023-07-20T12:35:37;20.30;99.90
51637;DHT22;37713;53.254;6.460;2023-07-20T12:38:03;20.30;99.90
51637;DHT22;37713;53.254;6.460;2023-07-20T12:40:29;20.30;99.90
51637;DHT22;37713;53.254;6.460;2023-07-20T12:42:55;20.40;99.90
51637;DHT22;37713;53.254;6.460;2023-07-20T12:45:21;20.70;99.90
51637;DHT22;37713;53.254;6.460;2023-07-20T12:47:47;20.90;99.90
51637;DHT22;37713;53.254;6.460;2023-07-20T12:50:13;21.10;99.90
51637;DHT22;37713;53.254;6.460;2023-07-20T12:52:40;21.10;99.90
51637;DHT22;37713;53.254;6.460;2023-07-20T12:55:07;21.00;99.90
51637;DHT22;37713;53.254;6.460;2023-07-20T12:57:34;20.90;99.90
51637;DHT22;37713;53.254;6.460;2023-07-20T13:00:01;20.90;99.90
51637;DHT22;37713;53.254;6.460;2023-07-20T13:02:30;20.90;99.90
51637;DHT22;37713;53.254;6.460;2023-07-20T13:04:56;20.80;99.90
51637;DHT22;37713;53.254;6.460;2023-07-20T13:07:33;20.70;99.90
51637;DHT22;37713;53.254;6.460;2023-07-20T13:10:00;20.60;99.90
51637;DHT22;37713;53.254;6.460;2023-07-20T13:12:27;20.60;99.90
51637;DHT22;37713;53.254;6.460;2023-07-20T13:14:53;20.60;99.90
51637;DHT22;37713;53.254;6.460;2023-07-20T13:17:19;20.70;99.90
51637;DHT22;37713;53.254;6.460;2023-07-20T13:19:45;20.70;99.90
51637;DHT22;37713;53.254;6.460;2023-07-20T13:22:12;20.70;99.90
51637;DHT22;37713;53.254;6.460;2023-07-20T13:24:38;20.80;99.90
51637;DHT22;37713;53.254;6.460;2023-07-20T13:27:04;20.70;99.90
51637;DHT22;37713;53.254;6.460;2023-07-20T13:29:30;20.50;99.90
51637;DHT22;37713;53.254;6.460;2023-07-20T13:31:57;20.50;99.90
51637;DHT22;37713;53.254;6.460;2023-07-20T13:34:23;20.50;99.90
51637;DHT22;37713;53.254;6.460;2023-07-20T13:36:49;20.50;99.90
51637;DHT22;37713;53.254;6.460;2023-07-20T13:39:15;20.70;99.90
51637;DHT22;37713;53.254;6.460;2023-07-20T13:41:41;20.80;99.90
51637;DHT22;37713;53.254;6.460;2023-07-20T13:44:07;20.80;99.90
51637;DHT22;37713;53.254;6.460;2023-07-20T13:46:33;20.70;99.90
51637;DHT22;37713;53.254;6.460;2023-07-20T13:49:00;20.60;99.90
51637;DHT22;37713;53.254;6.460;2023-07-20T13:51:25;20.60;99.90
51637;DHT22;37713;53.254;6.460;2023-07-20T13:53:52;20.50;99.90
51637;DHT22;37713;53.254;6.460;2023-07-20T13:56:17;20.50;99.90
51637;DHT22;37713;53.254;6.460;2023-07-20T13:58:43;20.60;99.90
51637;DHT22;37713;53.254;6.460;2023-07-20T14:01:09;20.90;99.90
51637;DHT22;37713;53.254;6.460;2023-07-20T14:03:35;21.10;99.90
51637;DHT22;37713;53.254;6.460;2023-07-20T14:06:01;21.20;99.90
51637;DHT22;37713;53.254;6.460;2023-07-20T14:08:26;21.20;99.90
51637;DHT22;37713;53.254;6.460;2023-07-20T14:10:53;21.10;99.90
51637;DHT22;37713;53.254;6.460;2023-07-20T14:13:18;21.10;99.90
51637;DHT22;37713;53.254;6.460;2023-07-20T14:15:44;20.80;99.90
51637;DHT22;37713;53.254;6.460;2023-07-20T14:18:10;20.80;99.90
51637;DHT22;37713;53.254;6.460;2023-07-20T14:20:36;20.90;99.90
51637;DHT22;37713;53.254;6.460;2023-07-20T14:23:02;21.00;99.90
51637;DHT22;37713;53.254;6.460;2023-07-20T14:25:27;21.00;99.90
51637;DHT22;37713;53.254;6.460;2023-07-20T14:27:53;21.10;99.90
51637;DHT22;37713;53.254;6.460;2023-07-20T14:30:19;21.00;99.90
51637;DHT22;37713;53.254;6.460;2023-07-20T14:32:45;21.00;99.90
51637;DHT22;37713;53.254;6.460;2023-07-20T14:35:11;20.90;99.90
51637;DHT22;37713;53.254;6.460;2023-07-20T14:37:37;20.70;99.90
51637;DHT22;37713;53.254;6.460;2023-07-20T14:40:03;20.50;99.90
51637;DHT22;37713;53.254;6.460;2023-07-20T14:42:30;20.40;99.90
51637;DHT22;37713;53.254;6.460;2023-07-20T14:44:58;20.30;99.90
51637;DHT22;37713;53.254;6.460;2023-07-20T14:47:23;20.10;99.90
51637;DHT22;37713;53.254;6.460;2023-07-20T14:49:49;20.10;99.90
51637;DHT22;37713;53.254;6.460;2023-07-20T14:52:15;20.10;99.90
51637;DHT22;37713;53.254;6.460;2023-07-20T14:54:41;20.20;99.90
51637;DHT22;37713;53.254;6.460;2023-07-20T14:57:07;20.20;99.90
51637;DHT22;37713;53.254;6.460;2023-07-20T14:59:39;20.30;99.90
51637;DHT22;37713;53.254;6.460;2023-07-20T15:02:07;20.40;99.90
51637;DHT22;37713;53.254;6.460;2023-07-20T15:04:33;20.40;99.90
51637;DHT22;37713;53.254;6.460;2023-07-20T15:06:59;20.50;99.90
51637;DHT22;37713;53.254;6.460;2023-07-20T15:09:25;20.50;99.90
51637;DHT22;37713;53.254;6.460;2023-07-20T15:11:51;20.60;99.90
51637;DHT22;37713;53.254;6.460;2023-07-20T15:14:16;20.60;99.90
51637;DHT22;37713;53.254;6.460;2023-07-20T15:16:42;20.60;99.90
51637;DHT22;37713;53.254;6.460;2023-07-20T15:19:09;20.60;99.90
51637;DHT22;37713;53.254;6.460;2023-07-20T15:21:34;20.70;99.90
51637;DHT22;37713;53.254;6.460;2023-07-20T15:24:00;20.80;99.90
51637;DHT22;37713;53.254;6.460;2023-07-20T15:26:26;20.90;99.90
51637;DHT22;37713;53.254;6.460;2023-07-20T15:28:52;21.10;99.90
51637;DHT22;37713;53.254;6.460;2023-07-20T15:31:18;21.20;99.90
51637;DHT22;37713;53.254;6.460;2023-07-20T15:33:44;21.30;99.90
51637;DHT22;37713;53.254;6.460;2023-07-20T15:36:10;21.50;99.90
51637;DHT22;37713;53.254;6.460;2023-07-20T15:38:36;21.50;99.90
51637;DHT22;37713;53.254;6.460;2023-07-20T15:41:01;21.30;99.90
51637;DHT22;37713;53.254;6.460;2023-07-20T15:43:28;21.20;99.90
51637;DHT22;37713;53.254;6.460;2023-07-20T15:46:04;21.20;99.90
51637;DHT22;37713;53.254;6.460;2023-07-20T15:48:36;21.30;99.90